Time;durP1;ratioP1;P1;durP2;ratioP2;P2;SDS_P1;SDS_P2;PMS_P1;PMS_P2;Temp;Humidity;BMP_temperature;BMP_pressure;BME280_temperature;BME280_humidity;BME280_pressure;Samples;Min_cycle;Max_cycle;Signal;HPM_P1;HPM_P2
2021/12/30 00:00:45;;;;;;;38.50;20.38;;;4.60;76.30;;;;;;5013888;28;20425;-25
2021/12/30 00:03:12;;;;;;;58.65;24.75;;;4.60;76.50;;;;;;5013551;28;20424;-27
2021/12/30 00:05:39;;;;;;;61.97;28.25;;;4.50;76.60;;;;;;5013608;28;20030;-25
2021/12/30 00:08:07;;;;;;;41.03;21.35;;;4.50;76.60;;;;;;5014171;28;20026;-25
2021/12/30 00:10:33;;;;;;;38.30;18.60;;;4.50;76.60;;;;;;5017012;28;20026;-25
2021/12/30 00:12:59;;;;;;;23.38;14.15;;;4.40;76.60;;;;;;5017319;28;20037;-26
2021/12/30 00:15:27;;;;;;;26.85;15.63;;;4.40;76.60;;;;;;5017108;28;20034;-27
2021/12/30 00:17:53;;;;;;;34.70;20.73;;;4.40;76.50;;;;;;5016930;28;20108;-25
2021/12/30 00:20:20;;;;;;;56.67;27.35;;;4.30;76.50;;;;;;5016814;28;20034;-25
2021/12/30 00:22:46;;;;;;;57.13;26.02;;;4.30;76.70;;;;;;5016997;28;20026;-25
2021/12/30 00:25:15;;;;;;;55.15;31.42;;;4.20;76.60;;;;;;5017232;28;20045;-26
2021/12/30 00:27:42;;;;;;;32.88;18.08;;;4.20;77.00;;;;;;5017220;28;20029;-26
2021/12/30 00:30:10;;;;;;;40.33;21.90;;;4.10;76.90;;;;;;5016958;28;20080;-25
2021/12/30 00:32:36;;;;;;;16.10;10.75;;;4.10;76.90;;;;;;5016705;28;20417;-24
2021/12/30 00:35:04;;;;;;;16.92;10.75;;;4.10;76.90;;;;;;5017218;28;20033;-27
2021/12/30 00:37:30;;;;;;;59.15;31.90;;;4.00;76.90;;;;;;5017574;28;20080;-27
2021/12/30 00:39:56;;;;;;;16.85;11.07;;;4.00;77.10;;;;;;5015458;28;20033;-24
2021/12/30 00:42:22;;;;;;;18.45;11.35;;;4.00;77.00;;;;;;5016660;28;20036;-25
2021/12/30 00:44:48;;;;;;;21.45;14.20;;;4.00;77.00;;;;;;5017462;28;20432;-26
2021/12/30 00:47:14;;;;;;;28.63;15.98;;;3.90;77.00;;;;;;5016729;28;20542;-26
2021/12/30 00:49:40;;;;;;;18.58;12.88;;;3.90;76.90;;;;;;5015163;28;20532;-26
2021/12/30 00:52:06;;;;;;;19.77;12.35;;;3.90;76.80;;;;;;5017015;28;20025;-25
2021/12/30 00:54:32;;;;;;;24.40;14.77;;;3.90;76.80;;;;;;5015205;28;20118;-25
2021/12/30 00:56:59;;;;;;;18.42;10.75;;;3.90;76.80;;;;;;5015059;28;20030;-24
2021/12/30 00:59:26;;;;;;;43.22;24.52;;;3.80;76.80;;;;;;5016568;28;20053;-26
2021/12/30 01:01:52;;;;;;;46.63;29.45;;;3.80;76.90;;;;;;5016312;28;20026;-27
2021/12/30 01:04:20;;;;;;;49.45;32.40;;;3.80;76.90;;;;;;5016004;28;20079;-25
2021/12/30 01:06:47;;;;;;;17.58;11.02;;;3.70;76.90;;;;;;5016479;28;20030;-26
2021/12/30 01:09:13;;;;;;;18.30;13.77;;;3.70;77.00;;;;;;5016326;28;20604;-25
2021/12/30 01:11:39;;;;;;;17.52;11.10;;;3.70;77.00;;;;;;5016346;28;20021;-24
2021/12/30 01:14:23;;;;;;;36.42;19.67;;;3.70;77.00;;;;;;5016357;28;20359;-26
2021/12/30 01:16:53;;;;;;;24.45;15.73;;;3.70;77.00;;;;;;5014568;28;20095;-25
2021/12/30 01:21:49;;;;;;;21.52;13.57;;;3.70;76.90;;;;;;5015773;28;20061;-25
2021/12/30 01:24:15;;;;;;;17.73;11.00;;;3.60;76.80;;;;;;5015830;28;20148;-27
2021/12/30 01:26:41;;;;;;;14.32;8.27;;;3.60;76.80;;;;;;5015783;28;20116;-24
2021/12/30 01:29:07;;;;;;;13.30;9.05;;;3.60;76.70;;;;;;5015876;28;20045;-24
2021/12/30 01:31:33;;;;;;;27.63;18.25;;;3.60;76.70;;;;;;5015699;28;20022;-26
2021/12/30 01:33:59;;;;;;;22.17;14.13;;;3.50;76.60;;;;;;5016181;28;20123;-25
2021/12/30 01:36:27;;;;;;;22.33;14.63;;;3.50;76.60;;;;;;5015866;28;20382;-24
2021/12/30 01:38:54;;;;;;;12.65;7.07;;;3.40;76.70;;;;;;5016453;28;20037;-25
2021/12/30 01:41:22;;;;;;;26.30;14.13;;;3.40;76.60;;;;;;5015584;28;20080;-24
2021/12/30 01:43:49;;;;;;;32.88;21.42;;;3.40;76.70;;;;;;5015616;28;20446;-24
2021/12/30 01:46:15;;;;;;;23.13;15.70;;;3.40;76.70;;;;;;5015700;28;20036;-26
2021/12/30 01:48:42;;;;;;;27.83;19.83;;;3.40;76.70;;;;;;5014992;28;20425;-27
2021/12/30 01:51:09;;;;;;;21.38;14.20;;;3.30;76.80;;;;;;5016157;28;20072;-26
2021/12/30 01:53:37;;;;;;;14.30;9.82;;;3.30;76.80;;;;;;5015349;28;20018;-24
2021/12/30 01:56:05;;;;;;;26.05;16.50;;;3.30;76.70;;;;;;5015472;28;20105;-27
2021/12/30 01:58:32;;;;;;;16.33;10.35;;;3.30;76.70;;;;;;5015833;28;20042;-25
2021/12/30 02:00:58;;;;;;;24.90;16.17;;;3.30;76.60;;;;;;5015019;28;20041;-24
2021/12/30 02:03:25;;;;;;;13.45;8.25;;;3.20;76.50;;;;;;5015423;28;20109;-26
2021/12/30 02:05:52;;;;;;;36.40;23.10;;;3.20;76.50;;;;;;5015056;28;20490;-25
2021/12/30 02:08:20;;;;;;;32.35;20.77;;;3.20;76.50;;;;;;5014785;28;20030;-27
2021/12/30 02:10:49;;;;;;;23.80;15.38;;;3.10;76.60;;;;;;5015054;28;20510;-27
2021/12/30 02:13:17;;;;;;;31.92;22.33;;;3.10;76.50;;;;;;5015203;28;20034;-26
2021/12/30 02:15:43;;;;;;;27.08;17.25;;;3.00;76.50;;;;;;5014908;28;20037;-27
2021/12/30 02:18:09;;;;;;;35.72;23.00;;;3.00;76.70;;;;;;5014714;28;20037;-26
2021/12/30 02:20:45;;;;;;;17.65;11.48;;;2.90;76.80;;;;;;5015021;28;20030;-25
2021/12/30 02:23:36;;;;;;;14.48;8.68;;;2.90;76.90;;;;;;5014815;28;20037;-26
2021/12/30 02:26:08;;;;;;;15.25;9.38;;;2.90;76.90;;;;;;5014900;28;20084;-25
2021/12/30 02:28:37;;;;;;;22.55;15.23;;;2.90;76.90;;;;;;5014809;28;20501;-24
2021/12/30 02:31:08;;;;;;;39.67;25.42;;;2.90;76.90;;;;;;5014322;28;20034;-26
2021/12/30 02:33:34;;;;;;;13.10;8.73;;;2.90;76.80;;;;;;5014338;28;20095;-25
2021/12/30 02:36:02;;;;;;;23.15;14.43;;;2.90;76.80;;;;;;5014798;28;20096;-24
2021/12/30 02:38:28;;;;;;;13.40;7.15;;;2.90;76.80;;;;;;5014225;28;20125;-24
2021/12/30 02:40:57;;;;;;;34.20;23.92;;;2.90;76.70;;;;;;5014707;28;20062;-26
2021/12/30 02:43:26;;;;;;;19.95;12.50;;;2.90;76.70;;;;;;5014832;28;20052;-25
2021/12/30 02:45:53;;;;;;;13.73;9.15;;;2.90;76.70;;;;;;5014642;28;20497;-27
2021/12/30 02:48:26;;;;;;;26.52;17.33;;;2.80;76.70;;;;;;5013868;28;20525;-26
2021/12/30 02:50:55;;;;;;;31.08;22.20;;;2.80;76.60;;;;;;5014452;28;20037;-25
2021/12/30 02:53:31;;;;;;;14.65;8.18;;;2.80;76.60;;;;;;5144124;27;20625;-23
2021/12/30 02:56:00;;;;;;;13.75;9.40;;;2.70;76.70;;;;;;5092660;28;20043;-21
2021/12/30 02:58:27;;;;;;;12.30;8.00;;;2.70;76.70;;;;;;5111042;28;20027;-21
2021/12/30 03:01:18;;;;;;;16.88;10.73;;;2.70;76.70;;;;;;5111527;28;20103;-22
2021/12/30 03:03:44;;;;;;;27.48;17.33;;;2.70;76.60;;;;;;5109609;28;20024;-22
2021/12/30 03:06:12;;;;;;;15.63;10.38;;;2.70;76.70;;;;;;5126652;28;20077;-21
2021/12/30 03:08:39;;;;;;;19.02;13.38;;;2.70;76.70;;;;;;5110904;28;20024;-22
2021/12/30 03:11:07;;;;;;;37.58;25.08;;;2.60;76.60;;;;;;5110863;28;20086;-24
2021/12/30 03:13:35;;;;;;;52.72;33.13;;;2.60;77.20;;;;;;5111035;28;20055;-23
2021/12/30 03:16:06;;;;;;;39.75;24.55;;;2.60;77.70;;;;;;5110885;28;20027;-23
2021/12/30 03:18:35;;;;;;;64.97;36.97;;;2.50;77.30;;;;;;5110671;28;20028;-23
2021/12/30 03:21:04;;;;;;;55.95;33.78;;;2.50;78.20;;;;;;5109232;28;20484;-24
2021/12/30 03:23:30;;;;;;;51.13;29.55;;;2.40;79.00;;;;;;5109207;28;20107;-23
2021/12/30 03:25:56;;;;;;;53.80;33.40;;;2.40;79.20;;;;;;5110029;28;20032;-23
2021/12/30 03:28:22;;;;;;;44.83;27.63;;;2.40;79.40;;;;;;5110215;28;20024;-23
2021/12/30 03:30:49;;;;;;;31.75;18.77;;;2.40;79.50;;;;;;5110321;28;20059;-23
2021/12/30 03:33:15;;;;;;;48.00;29.88;;;2.40;79.20;;;;;;5110079;28;20024;-23
2021/12/30 03:35:41;;;;;;;38.65;23.23;;;2.50;79.70;;;;;;5110503;28;20028;-23
2021/12/30 03:38:07;;;;;;;58.97;36.10;;;2.50;79.30;;;;;;5110187;28;20027;-23
2021/12/30 03:40:34;;;;;;;52.80;29.90;;;2.50;78.90;;;;;;5108671;28;20526;-23
2021/12/30 03:43:01;;;;;;;32.58;17.73;;;2.50;79.00;;;;;;5110063;28;20036;-23
2021/12/30 03:45:27;;;;;;;25.90;16.52;;;2.50;78.80;;;;;;5108756;28;20106;-23
2021/12/30 03:47:53;;;;;;;16.52;9.75;;;2.50;78.50;;;;;;5109898;28;20387;-23
2021/12/30 03:50:24;;;;;;;14.75;8.98;;;2.60;78.20;;;;;;5109718;28;20036;-23
2021/12/30 03:52:54;;;;;;;33.72;19.35;;;2.60;78.00;;;;;;5109664;28;20060;-24
2021/12/30 03:55:22;;;;;;;51.00;28.27;;;2.60;78.00;;;;;;5109822;28;20108;-23
2021/12/30 03:57:51;;;;;;;44.95;23.35;;;2.50;78.10;;;;;;5109766;28;20036;-23
2021/12/30 04:00:18;;;;;;;27.67;13.50;;;2.50;78.30;;;;;;5109586;28;20077;-23
2021/12/30 04:02:45;;;;;;;111.07;38.05;;;2.50;78.20;;;;;;5108412;28;20032;-23
2021/12/30 04:05:12;;;;;;;53.75;26.02;;;2.50;78.20;;;;;;5095803;28;20028;-23
2021/12/30 04:07:38;;;;;;;51.25;25.63;;;2.50;78.80;;;;;;5096030;28;20031;-24
2021/12/30 04:10:06;;;;;;;47.60;22.10;;;2.50;78.50;;;;;;5096029;28;20056;-23
2021/12/30 04:12:32;;;;;;;48.00;24.27;;;2.60;78.30;;;;;;5095737;28;20032;-23
2021/12/30 04:14:58;;;;;;;23.20;12.60;;;2.60;78.60;;;;;;5095921;28;20054;-23
2021/12/30 04:17:24;;;;;;;59.05;26.70;;;2.60;78.30;;;;;;5095996;28;20085;-23
2021/12/30 04:19:51;;;;;;;81.32;27.27;;;2.60;78.50;;;;;;5095824;28;20039;-23
2021/12/30 04:22:18;;;;;;;33.10;18.15;;;2.60;78.30;;;;;;5111313;28;20550;-23
2021/12/30 04:24:46;;;;;;;79.40;28.65;;;2.60;78.80;;;;;;5095691;28;20043;-23
2021/12/30 04:27:12;;;;;;;73.38;32.25;;;2.70;78.90;;;;;;5095655;28;20077;-24
2021/12/30 04:29:38;;;;;;;31.23;19.23;;;2.60;79.30;;;;;;5095604;28;20035;-24
2021/12/30 04:32:05;;;;;;;36.42;21.15;;;2.60;79.20;;;;;;5095592;28;20028;-23
2021/12/30 04:34:31;;;;;;;54.05;25.13;;;2.60;78.80;;;;;;5095633;28;20032;-23
2021/12/30 04:37:00;;;;;;;20.25;13.45;;;2.60;78.80;;;;;;5095571;28;20484;-23
2021/12/30 04:39:28;;;;;;;45.95;23.27;;;2.60;78.60;;;;;;5095721;28;20023;-23
2021/12/30 04:41:54;;;;;;;43.50;22.92;;;2.70;78.50;;;;;;5095687;28;20024;-23
2021/12/30 04:44:21;;;;;;;70.72;30.25;;;2.70;78.40;;;;;;5095086;28;20548;-24
2021/12/30 04:46:47;;;;;;;18.00;10.95;;;2.70;78.40;;;;;;5095129;28;20028;-23
2021/12/30 04:49:13;;;;;;;36.67;22.83;;;2.70;78.20;;;;;;5095237;28;20032;-23
2021/12/30 04:51:39;;;;;;;26.10;16.85;;;2.70;78.20;;;;;;5095189;28;20048;-23
2021/12/30 04:54:05;;;;;;;12.00;7.50;;;2.70;78.10;;;;;;5095504;28;20380;-23
2021/12/30 04:56:31;;;;;;;31.45;19.73;;;2.70;77.90;;;;;;5094874;28;20430;-23
2021/12/30 04:58:57;;;;;;;32.50;20.50;;;2.70;77.80;;;;;;5095383;28;20107;-22
2021/12/30 05:01:23;;;;;;;40.47;23.17;;;2.70;77.90;;;;;;5094916;28;20122;-23
2021/12/30 05:03:49;;;;;;;15.18;7.68;;;2.60;77.80;;;;;;5095537;28;20031;-24
2021/12/30 05:06:15;;;;;;;13.52;8.07;;;2.60;77.70;;;;;;5094723;28;20115;-24
2021/12/30 05:08:41;;;;;;;16.00;8.32;;;2.50;77.60;;;;;;5095184;28;20063;-23
2021/12/30 05:11:07;;;;;;;9.73;6.10;;;2.50;77.60;;;;;;5095078;28;20020;-23
2021/12/30 05:13:33;;;;;;;27.13;17.85;;;2.40;77.60;;;;;;5094758;28;20513;-23
2021/12/30 05:15:59;;;;;;;24.33;14.35;;;2.40;77.60;;;;;;5094325;28;20032;-23
2021/12/30 05:18:31;;;;;;;21.75;13.85;;;2.40;77.60;;;;;;5094661;28;20063;-23
2021/12/30 05:20:59;;;;;;;30.23;18.63;;;2.40;77.60;;;;;;5094668;28;20020;-23
2021/12/30 05:23:26;;;;;;;29.10;18.77;;;2.40;77.70;;;;;;5095040;28;20052;-24
2021/12/30 05:25:52;;;;;;;29.92;19.77;;;2.40;77.80;;;;;;5094603;28;20455;-23
2021/12/30 05:28:18;;;;;;;11.95;7.10;;;2.30;77.70;;;;;;5094583;28;20051;-23
2021/12/30 05:30:44;;;;;;;17.35;10.60;;;2.30;77.60;;;;;;5093088;28;20024;-24
2021/12/30 05:33:10;;;;;;;18.90;14.15;;;2.30;77.60;;;;;;5094328;28;20093;-23
2021/12/30 05:35:37;;;;;;;24.27;15.40;;;2.30;77.60;;;;;;5094987;28;20165;-22
2021/12/30 05:38:03;;;;;;;25.30;16.20;;;2.20;77.60;;;;;;5094470;28;20043;-23
2021/12/30 05:40:31;;;;;;;26.10;16.25;;;2.20;77.70;;;;;;5095214;28;20024;-23
2021/12/30 05:42:57;;;;;;;14.68;9.07;;;2.10;77.70;;;;;;5094600;28;20539;-22
2021/12/30 05:45:23;;;;;;;41.47;28.48;;;2.10;77.60;;;;;;5094471;28;20024;-22
2021/12/30 05:47:51;;;;;;;24.15;16.15;;;2.10;77.90;;;;;;5094052;28;20046;-21
2021/12/30 05:50:22;;;;;;;13.85;7.78;;;2.10;78.00;;;;;;5093869;28;20118;-22
2021/12/30 05:52:49;;;;;;;24.85;17.40;;;2.10;77.90;;;;;;5093941;28;20514;-21
2021/12/30 05:55:15;;;;;;;22.00;12.48;;;2.10;77.90;;;;;;5094005;28;20031;-22
2021/12/30 05:57:43;;;;;;;23.73;14.30;;;2.10;77.90;;;;;;5094252;28;20032;-22
2021/12/30 06:00:12;;;;;;;52.40;28.88;;;2.10;77.90;;;;;;5094178;28;20060;-22
2021/12/30 06:02:38;;;;;;;32.25;19.02;;;2.10;78.10;;;;;;5093558;28;20077;-22
2021/12/30 06:05:05;;;;;;;29.65;17.73;;;2.10;79.10;;;;;;5094112;28;20024;-22
2021/12/30 06:07:32;;;;;;;16.95;9.18;;;2.10;78.60;;;;;;5093792;28;20103;-21
2021/12/30 06:09:58;;;;;;;24.50;13.00;;;2.10;78.40;;;;;;5093771;28;20031;-22
2021/12/30 06:12:24;;;;;;;22.45;13.18;;;2.10;78.30;;;;;;5093425;28;20046;-21
2021/12/30 06:14:50;;;;;;;39.25;22.25;;;2.10;78.20;;;;;;5093630;28;20032;-22
2021/12/30 06:17:16;;;;;;;29.67;18.23;;;2.10;78.40;;;;;;5093766;28;20038;-22
2021/12/30 06:19:43;;;;;;;19.15;11.95;;;2.10;78.40;;;;;;5093888;28;20032;-22
2021/12/30 06:22:10;;;;;;;24.90;13.98;;;2.20;78.80;;;;;;5093685;28;20096;-21
2021/12/30 06:24:36;;;;;;;30.05;17.58;;;2.20;78.70;;;;;;5093293;28;20036;-21
2021/12/30 06:27:02;;;;;;;37.50;20.48;;;2.20;78.90;;;;;;5093552;28;20024;-21
2021/12/30 06:29:28;;;;;;;27.70;14.43;;;2.20;79.20;;;;;;5091847;28;20054;-21
2021/12/30 06:31:54;;;;;;;39.40;19.10;;;2.30;78.90;;;;;;5093533;28;20031;-21
2021/12/30 06:34:20;;;;;;;62.15;20.83;;;2.30;78.80;;;;;;5093465;28;20036;-22
2021/12/30 06:36:46;;;;;;;37.90;20.10;;;2.30;78.80;;;;;;5093611;28;20399;-22
2021/12/30 06:39:13;;;;;;;34.15;15.65;;;2.30;79.40;;;;;;5093308;28;20028;-21
2021/12/30 06:41:39;;;;;;;36.00;19.17;;;2.30;79.10;;;;;;5093225;28;20024;-21
2021/12/30 06:44:05;;;;;;;49.85;20.65;;;2.30;79.40;;;;;;5093878;28;20053;-21
2021/12/30 06:46:31;;;;;;;48.58;23.58;;;2.20;79.70;;;;;;5092990;28;20031;-22
2021/12/30 06:48:58;;;;;;;45.05;18.90;;;2.20;79.80;;;;;;5093204;28;20028;-22
2021/12/30 06:51:26;;;;;;;52.20;23.27;;;2.20;79.60;;;;;;5093053;28;20503;-22
2021/12/30 06:53:56;;;;;;;38.95;19.85;;;2.20;79.70;;;;;;5093476;28;20020;-22
2021/12/30 06:56:23;;;;;;;50.20;21.50;;;2.20;79.90;;;;;;5092953;28;20028;-22
2021/12/30 06:58:49;;;;;;;45.65;20.90;;;2.20;80.30;;;;;;5093080;28;20391;-22
2021/12/30 07:01:15;;;;;;;40.65;19.52;;;2.20;80.50;;;;;;5091880;28;20028;-22
2021/12/30 07:03:44;;;;;;;38.47;20.63;;;2.20;80.50;;;;;;5093320;28;20115;-22
2021/12/30 07:06:10;;;;;;;40.60;22.85;;;2.20;80.90;;;;;;5093039;28;20396;-22
2021/12/30 07:08:36;;;;;;;34.90;19.60;;;2.20;81.30;;;;;;5091624;28;20023;-22
2021/12/30 07:11:02;;;;;;;33.35;19.23;;;2.10;80.90;;;;;;5093029;28;20156;-22
2021/12/30 07:13:28;;;;;;;26.05;17.33;;;2.20;80.70;;;;;;5108998;28;20028;-22
2021/12/30 07:15:53;;;;;;;24.77;15.95;;;2.10;80.70;;;;;;5092949;28;20047;-22
2021/12/30 07:18:19;;;;;;;33.67;18.42;;;2.20;80.60;;;;;;5092753;28;20024;-22
2021/12/30 07:20:45;;;;;;;22.77;14.82;;;2.20;80.50;;;;;;5092776;28;20028;-22
2021/12/30 07:23:12;;;;;;;41.83;19.40;;;2.20;80.30;;;;;;5092894;28;20024;-22
2021/12/30 07:25:39;;;;;;;44.47;22.23;;;2.20;80.20;;;;;;5093127;28;20510;-22
2021/12/30 07:28:08;;;;;;;30.77;17.70;;;2.10;80.70;;;;;;5092941;28;20022;-22
2021/12/30 07:30:34;;;;;;;23.00;12.63;;;2.20;80.90;;;;;;5092603;28;20052;-22
2021/12/30 07:33:05;;;;;;;23.70;12.65;;;2.20;80.40;;;;;;5090851;28;20093;-22
2021/12/30 07:35:38;;;;;;;34.50;19.45;;;2.20;80.30;;;;;;5092825;28;20111;-22
2021/12/30 07:38:05;;;;;;;22.02;12.90;;;2.30;80.40;;;;;;5093332;28;20017;-22
2021/12/30 07:40:31;;;;;;;31.17;18.73;;;2.30;80.40;;;;;;5096361;28;20438;-22
2021/12/30 07:42:57;;;;;;;40.13;21.10;;;2.40;80.20;;;;;;5096518;28;20095;-22
2021/12/30 07:45:24;;;;;;;52.55;25.48;;;2.40;80.30;;;;;;5096769;28;20479;-22
2021/12/30 07:47:50;;;;;;;31.10;16.52;;;2.50;80.20;;;;;;5095142;28;20024;-23
2021/12/30 07:50:17;;;;;;;24.08;12.93;;;2.40;80.20;;;;;;5096511;28;20020;-23
2021/12/30 07:52:43;;;;;;;57.30;24.92;;;2.50;80.20;;;;;;5096110;28;20040;-23
2021/12/30 07:55:13;;;;;;;46.20;20.90;;;2.50;80.50;;;;;;5077788;28;20077;-23
2021/12/30 07:57:42;;;;;;;50.83;19.67;;;2.50;81.10;;;;;;5094707;28;20028;-24
2021/12/30 08:00:13;;;;;;;49.90;20.27;;;2.40;81.60;;;;;;5096651;28;20043;-23
2021/12/30 08:02:44;;;;;;;47.38;20.88;;;2.50;82.10;;;;;;5096373;28;20032;-23
2021/12/30 08:05:18;;;;;;;39.83;17.77;;;2.50;82.60;;;;;;5096168;28;20024;-23
2021/12/30 08:07:46;;;;;;;39.13;20.73;;;2.50;82.00;;;;;;5096421;28;20055;-23
2021/12/30 08:10:18;;;;;;;31.15;16.52;;;2.60;82.40;;;;;;5095993;28;20107;-23
2021/12/30 08:12:48;;;;;;;31.65;17.48;;;2.60;82.30;;;;;;5095971;28;20032;-24
2021/12/30 08:15:16;;;;;;;25.90;15.25;;;2.60;82.10;;;;;;5096138;28;20032;-23
2021/12/30 08:17:44;;;;;;;26.55;14.85;;;2.70;82.20;;;;;;5095800;28;20081;-23
2021/12/30 08:20:12;;;;;;;29.92;16.75;;;2.80;82.20;;;;;;5096230;28;20052;-24
2021/12/30 08:22:38;;;;;;;28.23;15.43;;;2.90;82.30;;;;;;5096161;28;20016;-24
2021/12/30 08:25:06;;;;;;;35.03;17.83;;;2.90;82.00;;;;;;5096028;28;20024;-23
2021/12/30 08:27:32;;;;;;;33.30;19.33;;;3.00;82.00;;;;;;5095736;28;20035;-23
2021/12/30 08:30:00;;;;;;;22.77;13.10;;;3.10;82.00;;;;;;5096282;28;20016;-23
2021/12/30 08:32:26;;;;;;;20.23;12.95;;;3.10;81.30;;;;;;5095379;28;20027;-24
2021/12/30 08:34:52;;;;;;;23.85;13.90;;;3.20;81.60;;;;;;5096105;28;20016;-24
2021/12/30 08:37:18;;;;;;;19.48;11.52;;;3.40;81.20;;;;;;5095764;28;20371;-23
2021/12/30 08:39:45;;;;;;;13.57;7.35;;;3.50;81.40;;;;;;5095741;28;20024;-23
2021/12/30 08:42:21;;;;;;;27.70;17.15;;;3.70;80.60;;;;;;5095407;28;20499;-23
2021/12/30 08:44:48;;;;;;;35.75;20.45;;;3.90;80.70;;;;;;5095878;28;20024;-23
2021/12/30 08:47:15;;;;;;;16.67;9.98;;;4.00;80.80;;;;;;5095208;28;20380;-23
2021/12/30 08:49:45;;;;;;;18.15;10.90;;;4.20;80.30;;;;;;5095159;28;20357;-23
2021/12/30 08:52:17;;;;;;;19.70;12.02;;;4.30;80.20;;;;;;5094890;28;20097;-23
2021/12/30 08:54:44;;;;;;;28.58;17.63;;;4.40;80.10;;;;;;5095224;28;20031;-23
2021/12/30 08:57:11;;;;;;;30.83;18.67;;;4.60;79.90;;;;;;5095414;28;20059;-23
2021/12/30 08:59:37;;;;;;;23.70;14.45;;;4.70;79.30;;;;;;5095062;28;20032;-23
2021/12/30 09:02:05;;;;;;;22.27;13.68;;;4.90;79.20;;;;;;5094947;28;20029;-24
2021/12/30 09:04:32;;;;;;;29.90;18.20;;;5.00;78.90;;;;;;5095111;28;20031;-23
2021/12/30 09:06:59;;;;;;;30.00;18.52;;;5.10;78.80;;;;;;5095239;28;20110;-23
2021/12/30 09:09:26;;;;;;;21.73;13.05;;;5.20;78.30;;;;;;5095160;28;20043;-23
2021/12/30 09:11:53;;;;;;;26.60;16.35;;;5.30;78.20;;;;;;5094823;28;20059;-23
2021/12/30 09:14:19;;;;;;;27.60;15.85;;;5.40;77.90;;;;;;5094786;28;20433;-23
2021/12/30 09:16:45;;;;;;;28.10;16.33;;;5.50;77.70;;;;;;5095171;28;20142;-23
2021/12/30 09:19:11;;;;;;;22.67;14.40;;;5.60;77.60;;;;;;5094988;28;20028;-23
2021/12/30 09:21:39;;;;;;;31.83;19.23;;;5.70;77.60;;;;;;5094907;28;20062;-23
2021/12/30 09:24:08;;;;;;;29.80;15.52;;;5.80;77.50;;;;;;5094737;28;20059;-24
2021/12/30 09:26:34;;;;;;;37.38;20.38;;;5.90;77.20;;;;;;5094438;28;20026;-24
2021/12/30 09:29:00;;;;;;;19.98;12.15;;;6.10;77.40;;;;;;5095138;28;20020;-23
2021/12/30 09:31:28;;;;;;;26.95;15.20;;;6.10;77.20;;;;;;5094683;28;20099;-23
2021/12/30 09:33:57;;;;;;;26.52;16.85;;;6.20;77.40;;;;;;5094636;28;20032;-24
2021/12/30 09:36:26;;;;;;;23.95;16.13;;;6.40;77.10;;;;;;5094450;28;20024;-23
2021/12/30 09:38:53;;;;;;;28.20;17.02;;;6.50;76.60;;;;;;5094316;28;20035;-23
2021/12/30 09:41:19;;;;;;;28.88;16.90;;;6.50;76.40;;;;;;5094461;28;20028;-23
2021/12/30 09:43:45;;;;;;;20.75;13.25;;;6.60;76.00;;;;;;5094472;28;20028;-23
2021/12/30 09:46:11;;;;;;;25.83;16.02;;;6.70;76.00;;;;;;5093817;28;20035;-23
2021/12/30 09:48:37;;;;;;;25.80;16.45;;;6.80;76.10;;;;;;5093945;28;20099;-23
2021/12/30 09:51:07;;;;;;;23.73;15.45;;;6.90;76.20;;;;;;5094075;28;20118;-23
2021/12/30 09:53:33;;;;;;;26.55;17.10;;;7.00;76.00;;;;;;5094010;28;20517;-23
2021/12/30 09:55:59;;;;;;;23.20;14.48;;;7.20;76.00;;;;;;5094031;28;20024;-23
2021/12/30 09:58:28;;;;;;;27.70;17.35;;;7.30;76.10;;;;;;5093901;28;20548;-24
2021/12/30 10:00:55;;;;;;;27.75;17.85;;;7.60;75.70;;;;;;5093470;28;20028;-23
2021/12/30 10:03:22;;;;;;;18.42;12.27;;;7.80;75.20;;;;;;5093125;28;20036;-24
2021/12/30 10:05:48;;;;;;;28.92;19.38;;;8.00;74.90;;;;;;5093936;28;20021;-23
2021/12/30 10:08:16;;;;;;;15.15;9.75;;;8.10;74.80;;;;;;5093628;28;20024;-24
2021/12/30 10:10:45;;;;;;;25.60;17.10;;;8.20;74.30;;;;;;5093769;28;20028;-23
2021/12/30 10:13:29;;;;;;;20.90;12.23;;;8.40;74.10;;;;;;5093852;28;20380;-23
2021/12/30 10:15:58;;;;;;;23.30;15.02;;;8.40;73.70;;;;;;5093978;28;20039;-23
2021/12/30 10:18:40;;;;;;;32.78;22.38;;;8.40;73.80;;;;;;5093422;28;20024;-23
2021/12/30 10:21:12;;;;;;;30.40;18.10;;;8.40;73.60;;;;;;5093999;28;20063;-23
2021/12/30 10:23:44;;;;;;;30.67;19.98;;;8.50;73.70;;;;;;5093547;28;20019;-24
2021/12/30 10:26:10;;;;;;;31.25;19.38;;;8.60;73.70;;;;;;5093497;28;20027;-23
2021/12/30 10:28:39;;;;;;;28.15;17.27;;;8.70;73.70;;;;;;5093374;28;20020;-23
2021/12/30 10:31:11;;;;;;;27.13;15.48;;;8.80;73.30;;;;;;5093310;28;20028;-23
2021/12/30 10:33:50;;;;;;;29.25;18.05;;;8.90;73.50;;;;;;5093213;28;20392;-23
2021/12/30 10:36:19;;;;;;;18.77;11.15;;;8.90;72.90;;;;;;5093424;28;20037;-22
2021/12/30 10:38:45;;;;;;;26.27;16.33;;;9.00;73.10;;;;;;5092484;28;20434;-23
2021/12/30 10:41:12;;;;;;;21.60;13.23;;;9.10;73.00;;;;;;5093566;28;20524;-23
2021/12/30 10:46:19;;;;;;;25.58;15.98;;;9.10;72.90;;;;;;5093341;28;20035;-23
2021/12/30 10:49:08;;;;;;;22.50;13.23;;;9.20;72.80;;;;;;5093103;28;20028;-23
2021/12/30 10:51:43;;;;;;;28.55;17.35;;;9.30;73.00;;;;;;5092899;28;20496;-22
2021/12/30 10:54:19;;;;;;;22.00;14.07;;;9.50;72.50;;;;;;5093165;28;20032;-23
2021/12/30 10:56:58;;;;;;;23.98;14.90;;;9.80;72.50;;;;;;5093221;28;20025;-23
2021/12/30 10:59:36;;;;;;;28.08;17.42;;;10.10;71.50;;;;;;5093499;28;20028;-23
2021/12/30 11:02:12;;;;;;;23.52;15.63;;;10.40;71.10;;;;;;5093282;28;20028;-23
2021/12/30 11:04:45;;;;;;;23.80;15.50;;;10.80;70.70;;;;;;5092987;28;20480;-23
2021/12/30 11:07:40;;;;;;;21.40;13.70;;;11.10;70.00;;;;;;5093002;28;20493;-23
2021/12/30 11:10:07;;;;;;;30.10;18.77;;;11.40;69.60;;;;;;5093302;28;20333;-23
2021/12/30 11:12:41;;;;;;;32.22;20.92;;;11.50;68.80;;;;;;5093078;28;20146;-24
2021/12/30 11:15:27;;;;;;;34.05;23.70;;;11.60;68.20;;;;;;5096939;28;20032;-23
2021/12/30 11:18:11;;;;;;;32.63;21.38;;;11.70;67.80;;;;;;5097019;28;20024;-24
2021/12/30 11:20:45;;;;;;;34.08;21.90;;;11.80;68.00;;;;;;5096842;28;20028;-23
2021/12/30 11:23:13;;;;;;;32.05;21.35;;;11.90;67.50;;;;;;5096965;28;20058;-23
2021/12/30 11:25:40;;;;;;;26.45;16.80;;;12.10;67.00;;;;;;5097202;28;20027;-23
2021/12/30 11:28:07;;;;;;;26.55;17.02;;;12.30;66.70;;;;;;5097123;28;20027;-24
2021/12/30 11:30:33;;;;;;;23.15;15.40;;;12.60;65.80;;;;;;5097487;28;20024;-24
2021/12/30 11:32:59;;;;;;;22.10;15.23;;;12.80;65.50;;;;;;5096596;28;20032;-23
2021/12/30 11:35:27;;;;;;;25.65;16.55;;;13.10;65.70;;;;;;5097087;28;20019;-23
2021/12/30 11:37:54;;;;;;;17.30;10.98;;;13.40;64.70;;;;;;5096958;28;20032;-24
2021/12/30 11:40:25;;;;;;;23.15;15.55;;;13.80;64.70;;;;;;5096610;28;20085;-23
2021/12/30 11:43:08;;;;;;;16.52;10.65;;;14.20;63.90;;;;;;5096576;28;20028;-23
2021/12/30 11:45:39;;;;;;;21.70;14.25;;;14.60;63.60;;;;;;5096524;28;20052;-23
2021/12/30 11:48:26;;;;;;;17.02;10.23;;;14.90;62.00;;;;;;5095151;28;20053;-24
2021/12/30 11:51:11;;;;;;;18.20;11.68;;;15.20;62.20;;;;;;5096744;28;20024;-23
2021/12/30 11:53:38;;;;;;;11.77;7.55;;;15.40;61.10;;;;;;5096691;28;20043;-23
2021/12/30 11:56:05;;;;;;;14.68;8.63;;;15.70;61.60;;;;;;5096351;28;20024;-23
2021/12/30 11:58:36;;;;;;;15.85;10.20;;;15.90;61.40;;;;;;5096202;28;20028;-22
2021/12/30 12:01:14;;;;;;;16.90;9.50;;;16.10;60.30;;;;;;5096275;28;20418;-23
2021/12/30 12:04:07;;;;;;;12.93;8.27;;;16.30;60.00;;;;;;5096461;28;20349;-22
2021/12/30 12:06:56;;;;;;;19.92;12.90;;;16.50;60.00;;;;;;5096203;28;20036;-22
2021/12/30 12:09:25;;;;;;;27.45;18.83;;;16.60;59.50;;;;;;5096006;28;20043;-23
2021/12/30 12:11:57;;;;;;;20.63;13.95;;;16.70;57.90;;;;;;5096259;28;20036;-22
2021/12/30 12:14:28;;;;;;;22.63;15.15;;;16.70;58.80;;;;;;5096126;28;20051;-23
2021/12/30 12:16:59;;;;;;;23.73;15.70;;;16.70;58.70;;;;;;5096190;28;20051;-24
2021/12/30 12:19:49;;;;;;;18.27;11.75;;;16.80;58.50;;;;;;5095946;28;20055;-23
2021/12/30 12:22:18;;;;;;;20.27;13.18;;;16.70;58.70;;;;;;5095759;28;20557;-22
2021/12/30 12:24:47;;;;;;;24.38;16.08;;;16.80;58.60;;;;;;5095537;28;20093;-22
2021/12/30 12:27:34;;;;;;;26.05;17.15;;;16.80;57.80;;;;;;5095983;28;20036;-23
2021/12/30 12:30:00;;;;;;;25.48;16.25;;;16.60;57.10;;;;;;5096030;28;20099;-23
2021/12/30 12:32:29;;;;;;;24.63;15.77;;;16.60;58.00;;;;;;5095620;28;20039;-23
2021/12/30 12:34:58;;;;;;;18.23;11.57;;;16.60;58.00;;;;;;5095550;28;20038;-22
2021/12/30 12:37:30;;;;;;;21.35;13.80;;;16.80;58.20;;;;;;5095590;28;20055;-23
2021/12/30 12:40:03;;;;;;;25.40;16.48;;;16.90;58.30;;;;;;5095473;28;20043;-23
2021/12/30 12:43:04;;;;;;;25.77;16.27;;;17.00;57.60;;;;;;5095973;28;20077;-22
2021/12/30 12:45:37;;;;;;;21.35;13.75;;;17.10;57.00;;;;;;5036546;28;20432;-22
2021/12/30 12:48:17;;;;;;;24.27;15.98;;;17.10;58.40;;;;;;5053392;28;20028;-22